Time;durP1;ratioP1;P1;durP2;ratioP2;P2;SDS_P1;SDS_P2;PMS_P1;PMS_P2;Temp;Humidity;BMP_temperature;BMP_pressure;BME280_temperature;BME280_humidity;BME280_pressure;Samples;Min_cycle;Max_cycle;Signal;HPM_P1;HPM_P2
2021/11/21 00:00:15;;;;;;;21.42;14.58;;;;;;;10.12;86.99;100088.47;1578032;86;25896;-81
2021/11/21 00:02:46;;;;;;;19.27;13.35;;;;;;;10.12;87.00;100092.48;1655680;86;25987;-81
2021/11/21 00:05:14;;;;;;;17.77;13.50;;;;;;;10.10;87.08;100091.32;1657572;86;26641;-80
2021/11/21 00:07:43;;;;;;;21.90;14.10;;;;;;;10.11;87.19;100086.33;1604424;86;25974;-80
2021/11/21 00:10:11;;;;;;;19.65;13.55;;;;;;;10.08;87.11;100080.82;1610824;86;26224;-79
2021/11/21 00:12:38;;;;;;;19.30;14.78;;;;;;;10.07;87.09;100079.69;1657386;86;25913;-80
2021/11/21 00:15:07;;;;;;;21.68;14.40;;;;;;;10.06;87.17;100074.84;1657441;86;26972;-79
2021/11/21 00:17:34;;;;;;;21.70;15.98;;;;;;;10.05;87.21;100074.52;1604303;86;25881;-80
2021/11/21 00:20:03;;;;;;;23.45;14.98;;;;;;;10.04;87.19;100074.21;1577884;86;25379;-79
2021/11/21 00:22:35;;;;;;;20.92;14.63;;;;;;;10.03;87.21;100069.87;1657406;86;25934;-79
2021/11/21 00:24:59;;;;;;;20.95;14.65;;;;;;;10.03;87.27;100068.53;1656960;86;25323;-79
2021/11/21 00:27:26;;;;;;;19.17;14.13;;;;;;;10.02;87.23;100066.89;1604075;86;27541;-79
2021/11/21 00:29:54;;;;;;;20.92;14.13;;;;;;;10.00;87.19;100064.92;1578073;86;25955;-81
2021/11/21 00:32:22;;;;;;;21.05;14.90;;;;;;;10.00;87.20;100066.77;1657490;86;25780;-79
2021/11/21 00:34:49;;;;;;;22.60;14.63;;;;;;;9.99;87.23;100063.26;1657640;86;26460;-79
2021/11/21 00:37:17;;;;;;;20.50;14.70;;;;;;;9.97;87.18;100065.30;1632518;86;26498;-80
2021/11/21 00:39:44;;;;;;;21.95;15.95;;;;;;;9.97;87.22;100067.98;1632526;86;28237;-80
2021/11/21 00:42:14;;;;;;;23.57;15.03;;;;;;;9.96;87.15;100067.68;1609668;86;26638;-80
2021/11/21 00:44:40;;;;;;;18.02;14.40;;;;;;;9.97;87.19;100072.00;1657072;86;25919;-79
2021/11/21 00:47:07;;;;;;;26.50;15.72;;;;;;;9.98;87.13;100064.80;1632155;86;26527;-80
2021/11/21 00:49:34;;;;;;;24.37;15.68;;;;;;;9.97;87.06;100064.47;1604300;86;26356;-81
2021/11/21 00:52:02;;;;;;;22.77;14.33;;;;;;;9.96;86.94;100062.33;1632140;86;27974;-79
2021/11/21 00:54:41;;;;;;;21.87;14.23;;;;;;;9.96;86.88;100062.84;1657202;86;25838;-80
2021/11/21 00:56:58;;;;;;;18.92;14.13;;;;;;;9.93;86.93;100062.71;1630463;86;25805;-80
2021/11/21 00:59:25;;;;;;;20.30;13.32;;;;;;;9.93;86.88;100057.36;1615394;86;25763;-80
2021/11/21 01:01:52;;;;;;;19.60;14.30;;;;;;;9.93;86.69;100047.16;1636925;86;25379;-79
2021/11/21 01:04:20;;;;;;;18.35;13.45;;;;;;;9.92;86.81;100057.03;1659275;86;27512;-80
2021/11/21 01:06:47;;;;;;;19.00;13.78;;;;;;;9.92;86.65;100050.34;1636289;86;25915;-79
2021/11/21 01:09:15;;;;;;;18.75;14.15;;;;;;;9.92;86.57;100053.55;1615329;86;25961;-79
2021/11/21 01:11:42;;;;;;;17.35;13.30;;;;;;;9.91;86.73;100049.20;1636689;86;26411;-80
2021/11/21 01:14:10;;;;;;;23.00;14.58;;;;;;;9.92;86.54;100044.19;1636762;86;25859;-80
2021/11/21 01:16:37;;;;;;;21.02;13.25;;;;;;;9.89;86.55;100045.40;1636779;86;27390;-80
2021/11/21 01:19:05;;;;;;;16.97;12.20;;;;;;;9.89;86.53;100041.89;1615533;86;25901;-80
2021/11/21 01:21:33;;;;;;;18.73;13.35;;;;;;;9.88;86.35;100037.05;1614802;86;26669;-80
2021/11/21 01:24:00;;;;;;;19.25;12.88;;;;;;;9.86;86.31;100030.23;1659980;86;25972;-80
2021/11/21 01:26:28;;;;;;;18.52;13.03;;;;;;;9.86;86.43;100027.55;1636597;86;25933;-80
2021/11/21 01:28:55;;;;;;;18.32;12.03;;;;;;;9.86;86.27;100023.55;1660164;86;27527;-79
2021/11/21 01:31:22;;;;;;;18.30;11.60;;;;;;;9.84;86.09;100018.40;1613914;86;26006;-80
2021/11/21 01:33:49;;;;;;;19.37;12.85;;;;;;;9.82;86.08;100011.59;1660301;86;25787;-79
2021/11/21 01:36:16;;;;;;;19.52;12.55;;;;;;;9.81;86.16;100016.64;1636597;86;25915;-80
2021/11/21 01:38:44;;;;;;;18.45;12.18;;;;;;;9.81;86.13;100014.80;1615858;86;25999;-80
2021/11/21 01:41:12;;;;;;;19.12;12.93;;;;;;;9.80;86.03;100009.63;1605602;87;27167;-79
2021/11/21 01:43:41;;;;;;;19.10;13.22;;;;;;;9.80;86.08;100009.63;1605712;89;25383;-80
2021/11/21 01:46:08;;;;;;;18.45;13.15;;;;;;;9.79;86.08;100010.16;1603837;89;26611;-80
2021/11/21 01:48:36;;;;;;;19.67;12.35;;;;;;;9.80;86.02;100006.44;1583285;89;26440;-79
2021/11/21 01:51:09;;;;;;;20.92;12.85;;;;;;;9.80;85.98;99998.42;1603563;89;26583;-80
2021/11/21 01:53:37;;;;;;;18.45;13.18;;;;;;;9.80;85.94;99996.25;1606020;89;27515;-79
2021/11/21 01:56:05;;;;;;;20.02;14.30;;;;;;;9.77;85.69;99988.63;1603348;89;25912;-80
2021/11/21 01:58:34;;;;;;;18.67;13.62;;;;;;;9.74;85.91;99983.66;1581338;89;25822;-78
2021/11/21 02:01:03;;;;;;;17.77;13.13;;;;;;;9.74;85.72;99976.98;1561642;90;26528;-80
2021/11/21 02:03:30;;;;;;;18.30;11.50;;;;;;;9.72;85.86;99975.84;1583691;90;25866;-80
2021/11/21 02:05:57;;;;;;;22.17;13.22;;;;;;;9.70;85.77;99976.55;1594169;89;27406;-79
2021/11/21 02:08:24;;;;;;;19.32;13.40;;;;;;;9.70;85.76;99973.05;1578838;89;25900;-80
2021/11/21 02:10:57;;;;;;;19.42;13.18;;;;;;;9.69;85.77;99967.37;1580790;89;25798;-80
2021/11/21 02:13:19;;;;;;;20.77;13.80;;;;;;;9.68;85.78;99964.39;1596375;89;25894;-79
2021/11/21 02:15:47;;;;;;;20.32;14.18;;;;;;;9.66;85.73;99957.08;1599332;89;25856;-80
2021/11/21 02:18:14;;;;;;;20.25;14.53;;;;;;;9.65;85.77;99954.91;1558520;89;27491;-80
2021/11/21 02:20:48;;;;;;;21.12;14.45;;;;;;;9.65;85.85;99954.91;1580641;89;26576;-79
2021/11/21 02:23:16;;;;;;;18.50;13.20;;;;;;;9.65;85.75;99958.92;1596456;89;25768;-80
2021/11/21 02:25:43;;;;;;;22.05;14.28;;;;;;;9.65;85.67;99959.43;1599216;89;25882;-80
2021/11/21 02:28:10;;;;;;;21.57;14.18;;;;;;;9.66;85.72;99957.92;1558864;89;25825;-80
2021/11/21 02:30:38;;;;;;;20.85;14.35;;;;;;;9.66;85.54;99955.25;1580788;89;28215;-80
2021/11/21 02:33:13;;;;;;;20.72;13.95;;;;;;;9.66;85.51;99953.07;1596025;89;25764;-80
2021/11/21 02:35:44;;;;;;;20.48;15.28;;;;;;;9.66;85.52;99958.42;1606118;88;25876;-79
2021/11/21 02:38:14;;;;;;;21.07;14.60;;;;;;;9.66;85.43;99959.76;1574289;89;25735;-79
2021/11/21 02:40:42;;;;;;;20.35;14.65;;;;;;;9.65;85.31;99956.25;1582660;86;25881;-80
2021/11/21 02:43:10;;;;;;;19.37;14.10;;;;;;;9.67;85.38;99956.05;1649465;86;27630;-79
2021/11/21 02:45:37;;;;;;;22.52;14.25;;;;;;;9.67;85.34;99954.70;1631868;86;25795;-80
2021/11/21 02:48:05;;;;;;;38.53;20.92;;;;;;;9.67;85.14;99942.67;1654890;86;25818;-79
2021/11/21 02:50:32;;;;;;;24.57;15.48;;;;;;;9.68;85.19;99945.68;1632137;86;25966;-80
2021/11/21 02:53:00;;;;;;;19.70;14.50;;;;;;;9.67;84.97;99943.51;1604311;86;25872;-80
2021/11/21 02:55:30;;;;;;;24.35;15.83;;;;;;;9.66;84.99;99941.04;1632672;86;28206;-80
2021/11/21 02:57:59;;;;;;;20.63;14.53;;;;;;;9.64;85.11;99939.91;1657588;86;25830;-80
2021/11/21 03:00:26;;;;;;;19.77;13.98;;;;;;;9.65;85.13;99942.05;1631973;86;26544;-80
2021/11/21 03:02:54;;;;;;;21.17;15.32;;;;;;;9.63;85.00;99926.72;1632530;86;26441;-80
2021/11/21 03:05:21;;;;;;;26.27;15.45;;;;;;;9.58;85.07;99931.84;1609685;86;26013;-80
2021/11/21 03:07:49;;;;;;;21.15;15.05;;;;;;;9.59;85.26;99916.09;1655006;86;27610;-80
2021/11/21 03:10:19;;;;;;;23.27;14.73;;;;;;;9.56;85.06;99905.81;1631918;86;26606;-79
2021/11/21 03:12:50;;;;;;;23.00;15.18;;;;;;;9.54;85.01;99902.52;1604367;86;25882;-79
2021/11/21 03:15:17;;;;;;;;;;;;;;;9.51;85.16;99905.57;1634086;86;26302;-80
2021/11/21 03:17:44;;;;;;;23.27;15.38;;;;;;;9.48;84.81;99907.28;1657719;86;25713;-80
2021/11/21 03:20:15;;;;;;;24.43;15.48;;;;;;;9.46;85.13;99910.67;1589705;86;27558;-79
2021/11/21 03:22:43;;;;;;;21.37;14.75;;;;;;;9.46;84.85;99902.65;1611142;86;25871;-80
2021/11/21 03:25:13;;;;;;;20.48;13.38;;;;;;;9.45;84.81;99897.84;1632305;86;25661;-79
2021/11/21 03:27:41;;;;;;;24.32;15.72;;;;;;;9.45;84.52;99896.50;1656733;86;25883;-80
2021/11/21 03:30:11;;;;;;;24.77;15.90;;;;;;;9.45;84.58;99895.17;1589638;86;25946;-80
2021/11/21 03:32:39;;;;;;;25.43;14.30;;;;;;;9.45;84.48;99896.50;1632643;86;27681;-79
2021/11/21 03:35:08;;;;;;;23.35;15.32;;;;;;;9.47;84.09;99889.61;1632235;86;25931;-81
2021/11/21 03:37:36;;;;;;;20.97;14.38;;;;;;;9.46;84.21;99888.78;1657211;86;25857;-79
2021/11/21 03:40:08;;;;;;;23.87;15.35;;;;;;;9.46;84.15;99886.61;1580846;88;25522;-80
2021/11/21 03:42:35;;;;;;;25.05;14.63;;;;;;;9.47;83.96;99887.77;1614280;87;25845;-79
2021/11/21 03:45:02;;;;;;;26.10;15.85;;;;;;;9.46;83.72;99888.78;1613264;88;27505;-80
2021/11/21 03:47:29;;;;;;;26.93;16.67;;;;;;;9.47;83.71;99889.61;1665192;86;25841;-79
2021/11/21 03:49:56;;;;;;;26.75;15.20;;;;;;;9.45;83.59;99879.13;1617689;86;25758;-79
2021/11/21 03:52:23;;;;;;;27.42;16.20;;;;;;;9.47;83.83;99870.91;1635096;86;26521;-80
2021/11/21 03:54:50;;;;;;;25.43;16.57;;;;;;;9.47;83.70;99866.39;1608194;87;25839;-80
2021/11/21 03:57:18;;;;;;;23.55;14.70;;;;;;;9.45;83.19;99863.09;1632640;87;27468;-80
2021/11/21 03:59:46;;;;;;;26.75;16.45;;;;;;;9.43;83.46;99858.42;1586311;87;26006;-79
2021/11/21 04:02:13;;;;;;;25.85;16.37;;;;;;;9.43;83.53;99854.95;1581750;89;26662;-79
2021/11/21 04:04:40;;;;;;;24.57;16.00;;;;;;;9.44;83.57;99857.41;1621509;88;25944;-80
2021/11/21 04:07:07;;;;;;;24.25;15.60;;;;;;;9.44;83.38;99859.25;1596105;88;25941;-80
2021/11/21 04:09:34;;;;;;;27.35;16.57;;;;;;;9.44;83.41;99849.39;1617950;88;27596;-80
2021/11/21 04:12:01;;;;;;;23.95;14.75;;;;;;;9.41;83.03;99848.44;1640912;86;25966;-80
2021/11/21 04:14:28;;;;;;;23.40;14.70;;;;;;;9.40;83.11;99849.98;1634961;86;25841;-80
2021/11/21 04:16:55;;;;;;;22.22;15.15;;;;;;;9.38;83.00;99846.18;1608269;87;26841;-80
2021/11/21 04:19:22;;;;;;;25.60;15.38;;;;;;;9.39;83.19;99856.37;1608582;87;25846;-80
2021/11/21 04:21:49;;;;;;;26.40;16.97;;;;;;;9.37;83.10;99861.89;1587482;87;28292;-80
2021/11/21 04:24:16;;;;;;;25.37;16.97;;;;;;;9.38;83.19;99852.03;1603437;87;25488;-79
2021/11/21 04:26:44;;;;;;;29.65;17.92;;;;;;;9.38;83.23;99852.03;1608168;87;25832;-79
2021/11/21 04:29:12;;;;;;;27.07;16.40;;;;;;;9.38;83.07;99850.19;1632602;87;26136;-80
2021/11/21 04:31:39;;;;;;;25.95;16.05;;;;;;;9.37;83.10;99854.41;1587435;87;25913;-80
2021/11/21 04:34:07;;;;;;;26.97;15.35;;;;;;;9.34;82.76;99840.38;1596237;87;28344;-80
2021/11/21 04:36:34;;;;;;;29.60;17.17;;;;;;;9.32;82.98;99841.09;1608302;87;25916;-80
2021/11/21 04:39:04;;;;;;;27.10;15.58;;;;;;;9.32;82.78;99841.63;1630070;87;47143;-80
2021/11/21 04:41:31;;;;;;;28.05;17.32;;;;;;;9.32;82.98;99845.09;1658713;86;26450;-80
2021/11/21 04:44:02;;;;;;;24.67;14.98;;;;;;;9.30;82.84;99841.80;1606260;86;25907;-80
2021/11/21 04:46:30;;;;;;;24.80;15.28;;;;;;;9.31;83.02;99843.97;1573607;86;27432;-80
2021/11/21 04:48:57;;;;;;;23.45;14.45;;;;;;;9.32;83.02;99841.63;1649750;86;25916;-79
2021/11/21 04:51:24;;;;;;;24.25;15.63;;;;;;;9.31;83.02;99838.12;1657513;86;26610;-80
2021/11/21 04:53:51;;;;;;;26.00;16.50;;;;;;;9.30;83.01;99844.47;1604337;86;25857;-80
2021/11/21 04:56:18;;;;;;;27.15;16.48;;;;;;;9.32;83.04;99841.63;1609759;86;26038;-80
2021/11/21 04:58:45;;;;;;;24.70;14.83;;;;;;;9.31;82.90;99841.30;1657598;86;27644;-79
2021/11/21 05:01:12;;;;;;;26.93;16.10;;;;;;;9.30;82.92;99854.36;1656975;86;25567;-79
2021/11/21 05:03:39;;;;;;;27.13;16.12;;;;;;;9.28;83.06;99843.84;1611366;86;25928;-80
2021/11/21 05:06:06;;;;;;;28.02;16.12;;;;;;;9.27;83.03;99838.20;1578538;86;26171;-80
2021/11/21 05:08:33;;;;;;;28.05;17.02;;;;;;;9.28;83.13;99853.20;1657636;86;25295;-80
2021/11/21 05:11:00;;;;;;;27.10;16.42;;;;;;;9.26;83.16;99843.22;1657124;86;28185;-79
2021/11/21 05:13:27;;;;;;;28.83;17.00;;;;;;;9.27;83.25;99844.05;1590079;86;25876;-79
2021/11/21 05:15:54;;;;;;;25.55;16.17;;;;;;;9.26;83.23;99843.22;1577444;86;26026;-82
2021/11/21 05:18:21;;;;;;;28.60;17.40;;;;;;;9.25;83.20;99846.93;1657730;86;25794;-81
2021/11/21 05:20:48;;;;;;;29.20;17.30;;;;;;;9.25;83.26;99844.77;1657473;86;25822;-80
2021/11/21 05:23:16;;;;;;;26.95;15.85;;;;;;;9.24;83.22;99839.92;1604529;86;27599;-79
2021/11/21 05:25:43;;;;;;;26.68;17.00;;;;;;;9.23;83.25;99834.28;1578149;86;26601;-80
2021/11/21 05:28:10;;;;;;;31.23;18.02;;;;;;;9.22;83.17;99826.44;1657448;86;25841;-82
2021/11/21 05:30:37;;;;;;;28.02;16.82;;;;;;;9.21;83.28;99830.98;1657189;86;25796;-80
2021/11/21 05:33:05;;;;;;;30.90;16.62;;;;;;;9.20;83.09;99820.47;1604395;86;25902;-80
2021/11/21 05:35:32;;;;;;;27.80;17.35;;;;;;;9.19;83.17;99827.69;1609602;86;27407;-80
2021/11/21 05:37:59;;;;;;;27.27;16.42;;;;;;;9.19;83.17;99817.50;1657509;85;26490;-79
2021/11/21 05:40:26;;;;;;;27.90;16.67;;;;;;;9.19;83.09;99818.83;1643695;86;25923;-80
2021/11/21 05:42:53;;;;;;;28.67;16.82;;;;;;;9.18;83.22;99805.98;1619278;86;26003;-81
2021/11/21 05:45:20;;;;;;;26.70;16.05;;;;;;;9.18;83.24;99818.50;1555035;87;25872;-80
2021/11/21 05:47:47;;;;;;;32.60;18.30;;;;;;;9.16;83.13;99810.69;1632699;87;27638;-80
2021/11/21 05:50:15;;;;;;;27.90;15.90;;;;;;;9.16;83.27;99813.87;1632520;87;25944;-80
2021/11/21 05:52:47;;;;;;;27.82;16.07;;;;;;;9.14;83.31;99815.41;1588394;87;25786;-79
2021/11/21 05:55:17;;;;;;;29.75;18.10;;;;;;;9.14;83.42;99807.39;1606996;87;25933;-81
2021/11/21 05:57:44;;;;;;;29.63;17.57;;;;;;;9.12;83.38;99797.42;1632553;87;25885;-80
2021/11/21 06:00:16;;;;;;;28.12;17.60;;;;;;;9.10;83.51;99810.15;1632408;87;27516;-81
2021/11/21 06:02:43;;;;;;;29.35;17.98;;;;;;;9.11;83.62;99803.77;1587315;87;25397;-79
2021/11/21 06:05:11;;;;;;;27.30;16.25;;;;;;;9.11;83.66;99807.77;1606803;87;25766;-80
2021/11/21 06:07:38;;;;;;;24.07;15.32;;;;;;;9.12;83.80;99802.76;1632914;87;25839;-80
2021/11/21 06:10:07;;;;;;;27.48;15.63;;;;;;;9.12;83.73;99806.77;1632196;87;26483;-80
2021/11/21 06:12:35;;;;;;;29.87;16.73;;;;;;;9.11;83.74;99797.63;1587930;87;27570;-81
2021/11/21 06:15:03;;;;;;;25.70;16.55;;;;;;;9.10;83.79;99793.28;1582601;87;25434;-80
2021/11/21 06:17:30;;;;;;;27.82;16.42;;;;;;;9.09;83.93;99797.80;1632731;87;25313;-81
2021/11/21 06:19:57;;;;;;;30.60;16.40;;;;;;;9.09;83.92;99798.30;1632294;87;26466;-79
2021/11/21 06:22:25;;;;;;;27.98;16.87;;;;;;;9.08;83.94;99800.17;1566558;87;26621;-82
2021/11/21 06:24:52;;;;;;;30.45;17.92;;;;;;;9.09;84.02;99810.33;1553752;86;28175;-79
2021/11/21 06:27:19;;;;;;;29.02;17.48;;;;;;;9.08;84.06;99808.69;1632725;87;25793;-80
2021/11/21 06:29:46;;;;;;;28.95;17.60;;;;;;;9.04;84.01;99805.59;1632251;87;25836;-82
2021/11/21 06:32:13;;;;;;;33.75;17.50;;;;;;;9.03;84.23;99811.94;1565930;87;25813;-80
2021/11/21 06:34:40;;;;;;;26.25;16.25;;;;;;;9.01;84.38;99801.13;1553712;87;25404;-79
2021/11/21 06:37:09;;;;;;;27.48;15.80;;;;;;;8.99;84.38;99799.17;1632320;87;28247;-80
2021/11/21 06:39:40;;;;;;;27.87;16.87;;;;;;;8.98;84.58;99806.35;1632526;87;25820;-80
2021/11/21 06:42:11;;;;;;;31.70;17.98;;;;;;;8.96;84.67;99807.06;1587603;87;25912;-80
2021/11/21 06:44:39;;;;;;;27.10;17.10;;;;;;;8.94;84.79;99794.95;1586023;87;26664;-80
2021/11/21 06:47:06;;;;;;;32.15;18.55;;;;;;;8.95;84.93;99809.94;1632419;87;25784;-79
2021/11/21 06:49:34;;;;;;;28.23;17.15;;;;;;;8.94;85.10;99809.10;1632368;87;28187;-81
2021/11/21 06:52:01;;;;;;;31.60;17.82;;;;;;;8.95;85.06;99816.11;1587553;87;26588;-80
2021/11/21 06:54:28;;;;;;;29.30;16.48;;;;;;;8.95;85.21;99809.43;1575123;87;26079;-80
2021/11/21 06:56:55;;;;;;;31.45;18.55;;;;;;;8.94;85.28;99806.44;1632487;87;25933;-80
2021/11/21 06:59:22;;;;;;;32.08;18.15;;;;;;;8.95;85.46;99801.42;1633068;87;25912;-79
2021/11/21 07:01:49;;;;;;;30.95;18.17;;;;;;;8.95;85.59;99794.74;1566242;87;27522;-79
2021/11/21 07:04:17;;;;;;;33.20;18.37;;;;;;;8.95;85.70;99797.92;1555079;87;25865;-78
2021/11/21 07:06:46;;;;;;;30.68;18.20;;;;;;;8.93;85.64;99796.78;1632385;86;26282;-80
2021/11/21 07:09:17;;;;;;;30.05;18.25;;;;;;;8.90;85.58;99787.81;1632883;87;25980;-80
2021/11/21 07:11:46;;;;;;;31.12;16.90;;;;;;;8.90;85.69;99785.65;1587724;87;25415;-79
2021/11/21 07:14:13;;;;;;;31.80;18.23;;;;;;;8.88;85.87;99787.19;1554312;87;27053;-80
2021/11/21 07:16:44;;;;;;;35.38;19.85;;;;;;;8.87;85.85;99787.39;1632442;87;25836;-81
2021/11/21 07:19:11;;;;;;;32.08;18.30;;;;;;;8.85;85.80;99775.58;1633220;87;25951;-81
2021/11/21 07:21:38;;;;;;;30.95;18.62;;;;;;;8.86;85.70;99788.40;1566151;87;25946;-80
2021/11/21 07:24:06;;;;;;;28.40;16.95;;;;;;;8.85;85.79;99787.59;1555183;87;26641;-80
2021/11/21 07:26:33;;;;;;;31.23;18.73;;;;;;;8.87;85.68;99785.55;1595807;87;28208;-83
2021/11/21 07:29:00;;;;;;;31.23;19.10;;;;;;;8.88;85.67;99776.50;1632834;87;25371;-80
2021/11/21 07:31:27;;;;;;;37.23;20.02;;;;;;;8.90;85.61;99781.14;1587089;87;25622;-80
2021/11/21 07:33:54;;;;;;;29.67;17.75;;;;;;;8.89;85.50;99784.84;1553767;87;25950;-80
2021/11/21 07:36:22;;;;;;;36.13;19.45;;;;;;;8.89;85.45;99778.67;1573173;87;25837;-81
2021/11/21 07:38:49;;;;;;;32.88;20.50;;;;;;;8.89;85.59;99776.00;1630487;87;27621;-79
2021/11/21 07:41:16;;;;;;;33.53;19.87;;;;;;;8.89;85.52;99776.84;1596636;88;25687;-79
2021/11/21 07:43:43;;;;;;;32.75;19.82;;;;;;;8.88;85.49;99773.83;1592696;89;25868;-79
2021/11/21 07:46:11;;;;;;;32.40;18.40;;;;;;;8.89;85.39;99775.50;1596558;87;26788;-80
2021/11/21 07:48:38;;;;;;;36.75;21.37;;;;;;;8.88;85.33;99778.34;1639180;86;25849;-80
2021/11/21 07:51:06;;;;;;;33.00;19.42;;;;;;;8.89;85.37;99780.84;1616546;86;28178;-79
2021/11/21 07:53:33;;;;;;;34.25;19.48;;;;;;;8.88;85.32;99777.84;1594653;87;26100;-80
2021/11/21 07:56:00;;;;;;;35.75;20.92;;;;;;;8.90;85.27;99777.13;1611566;87;25786;-79
2021/11/21 07:58:28;;;;;;;35.30;20.60;;;;;;;8.92;85.18;99779.59;1611964;87;26590;-80
2021/11/21 08:00:55;;;;;;;28.00;16.15;;;;;;;8.94;85.12;99781.59;1607681;87;25970;-79
2021/11/21 08:03:22;;;;;;;33.58;20.72;;;;;;;8.94;84.92;99773.05;1612017;87;27568;-80
2021/11/21 08:05:49;;;;;;;37.30;20.48;;;;;;;8.95;84.84;99776.55;1610777;87;25925;-80
2021/11/21 08:08:16;;;;;;;30.57;18.50;;;;;;;8.96;84.86;99771.53;1633685;87;25715;-81
2021/11/21 08:10:43;;;;;;;33.80;20.43;;;;;;;8.97;84.68;99768.66;1604235;87;26433;-80
2021/11/21 08:13:10;;;;;;;36.85;21.07;;;;;;;8.98;84.71;99760.95;1554056;87;25963;-80
2021/11/21 08:15:38;;;;;;;36.25;20.80;;;;;;;9.01;84.73;99761.06;1626615;86;28100;-80
2021/11/21 08:18:05;;;;;;;34.55;21.27;;;;;;;9.03;84.66;99761.19;1625468;86;25837;-80
2021/11/21 08:20:32;;;;;;;36.68;19.82;;;;;;;9.07;84.52;99762.95;1573699;86;25924;-80
2021/11/21 08:22:59;;;;;;;32.73;19.48;;;;;;;9.07;84.35;99765.11;1593589;87;25850;-81
2021/11/21 08:25:26;;;;;;;34.60;20.90;;;;;;;9.11;84.44;99766.90;1607909;88;25814;-80
2021/11/21 08:27:53;;;;;;;35.38;19.85;;;;;;;9.13;84.11;99760.31;1622144;87;28140;-79
2021/11/21 08:30:22;;;;;;;32.63;19.62;;;;;;;9.15;84.04;99762.27;1597790;88;25912;-79
2021/11/21 08:32:49;;;;;;;32.48;19.65;;;;;;;9.18;84.15;99761.06;1588103;88;26021;-81
2021/11/21 08:35:16;;;;;;;32.67;19.82;;;;;;;9.21;84.07;99762.84;1558694;89;25947;-82
2021/11/21 08:37:44;;;;;;;32.20;18.45;;;;;;;9.23;83.58;99765.30;1606551;89;25842;-80
2021/11/21 08:40:11;;;;;;;31.97;19.32;;;;;;;9.26;83.79;99774.24;1572000;87;27456;-81
2021/11/21 08:42:38;;;;;;;30.82;18.85;;;;;;;9.28;83.23;99766.88;1597718;87;25911;-79
2021/11/21 08:45:08;;;;;;;34.08;21.10;;;;;;;9.29;83.51;99768.52;1621692;86;25926;-79
2021/11/21 08:47:36;;;;;;;36.50;21.65;;;;;;;9.27;83.24;99766.05;1610638;87;25892;-80
2021/11/21 08:50:09;;;;;;;30.65;19.65;;;;;;;9.27;83.35;99760.70;1605661;87;25809;-79
2021/11/21 08:52:36;;;;;;;36.30;21.42;;;;;;;9.28;83.18;99768.22;1586800;87;27614;-80
2021/11/21 08:55:05;;;;;;;33.83;21.05;;;;;;;9.27;83.33;99771.40;1570051;88;25959;-79
2021/11/21 08:57:32;;;;;;;35.43;21.02;;;;;;;9.30;83.31;99762.16;1613510;86;25737;-80
2021/11/21 09:00:04;;;;;;;34.80;21.27;;;;;;;9.32;83.27;99766.80;1570914;89;25858;-80
2021/11/21 09:02:28;;;;;;;33.98;22.90;;;;;;;9.32;82.99;99766.80;1566457;88;25851;-80
2021/11/21 09:04:55;;;;;;;40.03;23.22;;;;;;;9.34;83.08;99774.10;1600426;88;28237;-80
2021/11/21 09:07:22;;;;;;;31.27;18.87;;;;;;;9.34;83.17;99770.09;1624108;86;25788;-83
2021/11/21 09:09:51;;;;;;;37.80;23.65;;;;;;;9.36;82.92;99770.72;1621876;86;25965;-80
2021/11/21 09:12:18;;;;;;;32.38;19.85;;;;;;;9.37;83.04;99766.20;1583709;86;26661;-79
2021/11/21 09:14:45;;;;;;;32.65;19.40;;;;;;;9.39;82.74;99774.84;1647987;86;26118;-79
2021/11/21 09:17:12;;;;;;;37.08;21.77;;;;;;;9.36;82.41;99771.22;1624635;86;27465;-78
2021/11/21 09:19:39;;;;;;;40.05;24.05;;;;;;;9.37;82.85;99768.34;1631559;87;26122;-78
2021/11/21 09:22:06;;;;;;;33.42;18.98;;;;;;;9.38;82.72;99770.00;1582468;87;25973;-79
2021/11/21 09:24:33;;;;;;;33.88;21.20;;;;;;;9.38;82.18;99769.17;1583667;87;25982;-78
2021/11/21 09:27:00;;;;;;;31.95;19.17;;;;;;;9.34;82.37;99764.75;1624364;87;25884;-78
2021/11/21 09:29:27;;;;;;;32.15;19.45;;;;;;;9.33;82.25;99762.58;1592046;88;27566;-79
2021/11/21 09:31:54;;;;;;;35.23;21.60;;;;;;;9.33;82.34;99763.09;1581952;88;26043;-79
2021/11/21 09:34:21;;;;;;;32.93;21.87;;;;;;;9.32;82.34;99761.45;1616452;86;25956;-78
2021/11/21 09:36:48;;;;;;;33.33;21.35;;;;;;;9.30;82.21;99756.28;1639707;86;25852;-79
2021/11/21 09:39:15;;;;;;;32.28;20.60;;;;;;;9.30;82.33;99767.51;1643372;86;26038;-79
2021/11/21 09:41:43;;;;;;;34.48;20.57;;;;;;;9.29;82.37;99764.00;1614626;87;27584;-78
2021/11/21 09:44:11;;;;;;;35.35;20.30;;;;;;;9.29;82.21;99761.33;1586079;88;26587;-78
2021/11/21 09:46:38;;;;;;;32.70;19.85;;;;;;;9.31;82.12;99763.80;1638037;86;26693;-79
2021/11/21 09:49:05;;;;;;;32.35;21.05;;;;;;;9.28;81.98;99762.34;1627917;86;25900;-79
2021/11/21 09:51:32;;;;;;;31.48;19.62;;;;;;;9.26;82.24;99755.03;1584757;87;26134;-78
2021/11/21 09:53:59;;;;;;;31.73;19.67;;;;;;;9.27;82.18;99750.02;1605894;86;27546;-78
2021/11/21 09:56:26;;;;;;;31.65;19.75;;;;;;;9.29;82.34;99751.15;1626987;86;25825;-79
2021/11/21 09:58:53;;;;;;;33.13;20.37;;;;;;;9.29;82.28;99737.78;1623201;86;25897;-78
2021/11/21 10:01:44;;;;;;;31.42;18.77;;;;;;;9.30;82.00;99735.44;1584678;87;25868;-78
2021/11/21 10:04:13;;;;;;;31.87;20.17;;;;;;;9.31;81.97;99739.74;1605066;89;26217;-78
2021/11/21 10:06:45;;;;;;;31.05;19.27;;;;;;;9.31;81.94;99737.91;1608620;89;28266;-79
2021/11/21 10:09:18;;;;;;;34.15;19.75;;;;;;;9.32;81.97;99732.05;1625616;87;25926;-78
2021/11/21 10:12:06;;;;;;;34.88;19.25;;;;;;;9.31;81.67;99733.89;1582395;88;25945;-79
2021/11/21 10:14:56;;;;;;;32.13;19.70;;;;;;;9.32;82.00;99745.42;1589241;88;26466;-79
2021/11/21 10:17:26;;;;;;;36.05;21.65;;;;;;;9.31;81.75;99735.73;1612282;88;25912;-78
2021/11/21 10:20:20;;;;;;;34.03;21.40;;;;;;;9.33;82.23;99736.36;1609868;88;27583;-80
2021/11/21 10:23:08;;;;;;;31.12;18.73;;;;;;;9.38;82.26;99743.78;1600136;89;25776;-78
2021/11/21 10:25:43;;;;;;;36.48;22.02;;;;;;;9.37;81.55;99731.45;1544287;89;25803;-78
2021/11/21 10:28:31;;;;;;;34.27;21.27;;;;;;;9.32;81.18;99733.39;1608259;89;25917;-79
2021/11/21 10:31:13;;;;;;;32.42;20.77;;;;;;;9.30;81.44;99730.89;1580596;89;25840;-78
2021/11/21 10:33:54;;;;;;;32.33;21.25;;;;;;;9.31;81.85;99731.22;1584911;89;27622;-79
2021/11/21 10:36:25;;;;;;;35.15;22.80;;;;;;;9.31;81.44;99728.55;1585134;89;25971;-77
2021/11/21 10:39:03;;;;;;;35.35;21.57;;;;;;;9.31;81.23;99739.74;1608270;89;25808;-78
2021/11/21 10:41:37;;;;;;;40.78;26.15;;;;;;;9.29;81.12;99725.25;1618565;87;26586;-79
2021/11/21 10:44:15;;;;;;;44.58;31.48;;;;;;;9.28;81.35;99728.94;1588256;87;25934;-80
2021/11/21 10:46:59;;;;;;;36.68;22.65;;;;;;;9.31;81.65;99728.55;1598462;88;27466;-78
2021/11/21 10:49:36;;;;;;;37.13;21.30;;;;;;;9.36;81.67;99726.63;1612876;88;25877;-79
2021/11/21 10:52:18;;;;;;;33.88;21.75;;;;;;;9.35;81.25;99730.30;1599834;88;25983;-78
2021/11/21 10:54:57;;;;;;;33.38;20.95;;;;;;;9.34;81.05;99726.80;1599304;88;26009;-79
2021/11/21 10:57:34;;;;;;;35.63;21.23;;;;;;;9.34;81.29;99731.34;1579538;88;25847;-80
2021/11/21 11:00:00;;;;;;;32.00;19.40;;;;;;;9.33;80.75;99724.33;1620795;88;27645;-80
2021/11/21 11:02:31;;;;;;;33.40;20.32;;;;;;;9.33;81.21;99727.84;1599913;88;25987;-78
2021/11/21 11:05:17;;;;;;;38.70;23.98;;;;;;;9.34;81.16;99720.66;1592175;86;25962;-79
2021/11/21 11:08:03;;;;;;;33.23;21.23;;;;;;;9.32;81.05;99714.14;1587036;87;26525;-79
2021/11/21 11:10:38;;;;;;;37.30;22.62;;;;;;;9.33;81.28;99718.98;1529369;88;26247;-79
2021/11/21 11:13:11;;;;;;;32.30;20.32;;;;;;;9.34;81.27;99716.11;1623995;88;27456;-80
2021/11/21 11:15:41;;;;;;;33.90;20.62;;;;;;;9.33;81.15;99721.16;1623707;88;25709;-77
2021/11/21 11:18:15;;;;;;;36.98;21.48;;;;;;;9.34;81.27;99720.66;1624148;86;25852;-80
2021/11/21 11:20:48;;;;;;;34.83;20.82;;;;;;;9.34;81.04;99717.44;1598037;86;26377;-79
2021/11/21 11:23:20;;;;;;;40.23;21.68;;;;;;;9.37;81.14;99720.23;1634427;86;25329;-79
2021/11/21 11:25:50;;;;;;;33.83;19.65;;;;;;;9.38;81.31;99716.55;1621072;87;27682;-79
2021/11/21 11:28:29;;;;;;;33.05;20.00;;;;;;;9.40;80.90;99715.00;1577857;86;25831;-79
2021/11/21 11:30:58;;;;;;;34.08;20.50;;;;;;;9.38;81.11;99719.22;1603603;86;25810;-79